• Join FlightAware (Why Join?)
  • Login
  • US Flag 
12:15AM EDT


 

Airport Tracker/Info


-or-


 

Live Flight TrackerFlight Track Log ✈ FLG3733 ✈ 06-Jul-2013 ✈ KDTW - KALB

Flight Track Log - Related Links

Times and Time Zones

All times are in EDT time to prevent confusion due to time zone crossing. See the FLG3733 flight status page for this flight to view local times or setup timezone preferences in your user account.

Time Position Orientation Groundspeed Altitude Reporting Facility
EDT Latitude Longitude Course Direction KTS MPH feet Rate Location/Type
02:39PM 42.2017 -83.3583 90° East 149 171 1,300  Level Cleveland Center
02:40PM 42.1286 -83.3550 178° South 206 237 3,800 1,680 Climbing Cleveland Center
02:41PM 42.0706 -83.3414 170° South 253 291 5,400 1,920 Climbing Cleveland Center
02:42PM 42.0642 -83.2628 96° East 303 349 7,400 2,280 Climbing Cleveland Center
02:43PM 42.3335 -82.5826 71° East  Level FlightAware Approximate
02:43PM 42.1003 -83.1467 67° East 305 351 9,900  Level Cleveland Center
02:44PM 42.3667 -82.4351 90° East  Level FlightAware Approximate
02:44PM 42.1422 -83.0336 63° Northeast 320 368 11,200  Level Cleveland Center
02:45PM 42.1864 -82.9092 64° Northeast 341 392 12,500 1,440 Climbing Cleveland Center
02:46PM 42.2369 -82.7847 61° Northeast 354 407 14,100 1,500 Climbing Cleveland Center
02:47PM 42.2872 -82.6575 62° Northeast 369 425 15,500 1,320 Climbing Cleveland Center
02:48PM 42.3375 -82.5242 63° Northeast 382 440 16,800 1,080 Climbing Cleveland Center
02:49PM 42.3647 -82.3844 75° East 389 448 17,700 900 Climbing Cleveland Center
02:50PM 42.3567 -82.2353 94° East 382 440 18,600 780 Climbing Cleveland Center
02:51PM 42.3525 -82.0806 92° East 387 445 19,300 780 Climbing Cleveland Center
02:52PM 42.3461 -81.9261 93° East 405 466 20,200 900 Climbing Cleveland Center
02:53PM 42.3394 -81.7742 93° East 416 479 21,100 900 Climbing Cleveland Center
02:54PM 42.3325 -81.6225 93° East 405 466 22,100 840 Climbing Cleveland Center
02:55PM 42.3256 -81.4650 93° East 405 466 22,800 660 Climbing Cleveland Center
02:56PM 42.3164 -81.2964 94° East 405 466 23,500 660 Climbing Cleveland Center
02:57PM 42.3089 -81.1333 94° East 415 478 24,200 660 Climbing Cleveland Center
02:58PM 42.3033 -80.9761 93° East 423 487 24,900 660 Climbing Cleveland Center
02:59PM 42.2975 -80.8161 93° East 423 487 25,600 720 Climbing Cleveland Center
03:00PM 42.3142 -80.6533 82° East 423 487 26,400 660 Climbing Cleveland Center
03:01PM 42.3308 -80.4906 82° East 434 499 27,000 300 Climbing Cleveland Center
03:02PM 42.3431 -80.3219 84° East 442 509 27,000  Level Cleveland Center
03:03PM 42.3594 -80.1533 82° East 448 516 27,000  Level Cleveland Center
03:04PM 42.3753 -79.9761 83° East 461 531 27,000  Level Cleveland Center
03:05PM 42.3908 -79.7961 83° East 468 539 27,000  Level Cleveland Center
03:06PM 42.4061 -79.6158 83° East 473 544 27,000  Level Cleveland Center
03:07PM 42.4211 -79.4383 83° East 473 544 27,000  Level Cleveland Center
03:08PM 42.4358 -79.2581 84° East 478 550 27,000  Level Cleveland Center
03:09PM 42.4503 -79.0750 84° East 483 556 27,000  Level Cleveland Center
03:10PM 42.4667 -78.8944 83° East 483 556 27,000  Level Cleveland Center
03:11PM 42.4806 -78.7111 84° East 483 556 27,000  Level Cleveland Center
03:12PM 42.4942 -78.5303 84° East 483 556 27,000  Level Cleveland Center
03:13PM 42.5072 -78.3469 84° East 483 556 27,000  Level Cleveland Center
03:14PM 42.5203 -78.1661 84° East 483 556 27,000  Level Cleveland Center
03:15PM 42.5331 -77.9853 84° East 483 556 27,000  Level Cleveland Center
03:16PM 42.5422 -77.8356 85° East 483 556 27,000  Level Cleveland Center
03:17PM 42.5581 -77.6347 84° East 483 556 27,000  Level Cleveland Center
03:19PM 42.5828 -77.2292 85° East 471 542 27,000  Level Boston Center
03:20PM 42.5947 -77.0439 85° East 477 549 27,000  Level Boston Center
03:21PM 42.6042 -76.8611 86° East 482 555 27,000  Level Boston Center
03:22PM 42.6172 -76.6783 84° East 482 555 27,000  Level Boston Center
03:23PM 42.6261 -76.4928 86° East 482 555 27,000 -720 Level Boston Center
03:24PM 42.6369 -76.3042 85° East 487 560 25,600 -1,500 Descending Boston Center
03:25PM 42.6453 -76.1128 87° East 499 574 24,100 -1,500 Descending Boston Center
03:26PM 42.6386 -75.9261 93° East 499 574 22,600 -1,500 Descending Boston Center
03:27PM 42.6339 -75.7422 92° East 499 574 21,100 -1,500 Descending Boston Center
03:28PM 42.6281 -75.5783 93° East 499 574 19,600 -1,500 Descending Boston Center
03:29PM 42.6264 -75.4058 91° East 481 554 18,100 -1,500 Descending Boston Center
03:30PM 42.6264 -75.2394 90° East 453 521 16,700 -1,560 Descending Boston Center
03:31PM 42.6261 -75.0814 90° East 432 497 15,000 -1,740 Descending Boston Center
03:32PM 42.6253 -74.9289 90° East 413 475 13,300 -1,740 Descending Boston Center
03:33PM 42.6225 -74.7681 91° East 395 455 11,600 -1,140 Descending Boston Center
03:34PM 42.6192 -74.6239 92° East 381 438 11,100 -300 Descending Boston Center
03:35PM 42.6131 -74.4967 94° East 381 438 11,000 -900 Descending Boston Center
03:36PM 42.6050 -74.3583 94° East 345 397 9,300 -1,560 Descending Boston Center
03:37PM 42.5964 -74.2536 96° East 313 360 7,900 -1,500 Descending Boston Center
03:38PM 42.5858 -74.1378 97° East 289 333 6,400 -1,680 Descending Boston Center
03:39PM 42.5933 -74.0419 84° East 271 312 4,600 -1,200 Descending Boston Center
03:40PM 42.6050 -73.9492 80° East 266 306 4,000 -780 Descending Boston Center
03:41PM 42.6186 -73.8678 77° East 241 277 3,100 -900 Descending Boston Center